TimeEST,TemperatureF,Dew PointF,Humidity,Sea Level PressureIn,VisibilityMPH,Wind Direction,Wind SpeedMPH,Gust SpeedMPH,PrecipitationIn,Events,Conditions,WindDirDegrees,DateUTC
12:55 AM,31.5,25.0,77,29.61,10.0,NW,10.4,-,N/A,,Overcast,310,2012-12-28 05:55:00
1:55 AM,29.7,24.8,82,29.65,10.0,West,11.5,-,N/A,,Overcast,280,2012-12-28 06:55:00
2:55 AM,28.2,22.3,78,29.67,10.0,West,12.7,19.6,N/A,,Overcast,280,2012-12-28 07:55:00
3:55 AM,27.7,20.7,75,29.70,10.0,WNW,16.1,23.0,N/A,,Overcast,290,2012-12-28 08:55:00
4:55 AM,27.0,20.1,75,29.73,10.0,WNW,12.7,-,N/A,,Mostly Cloudy,300,2012-12-28 09:55:00
5:55 AM,26.6,19.4,74,29.76,10.0,WNW,13.8,-,N/A,,Mostly Cloudy,290,2012-12-28 10:55:00
6:55 AM,25.9,18.5,74,29.78,10.0,West,9.2,-,N/A,,Partly Cloudy,280,2012-12-28 11:55:00
7:55 AM,26.6,18.7,72,29.80,10.0,West,8.1,-,N/A,,Partly Cloudy,280,2012-12-28 12:55:00
8:55 AM,28.9,19.6,68,29.84,10.0,West,10.4,-,N/A,,Partly Cloudy,280,2012-12-28 13:55:00
9:55 AM,31.1,21.0,66,29.86,10.0,West,11.5,-,N/A,,Partly Cloudy,280,2012-12-28 14:55:00
10:55 AM,33.3,21.6,62,29.85,10.0,West,11.5,-,N/A,,Partly Cloudy,280,2012-12-28 15:55:00
11:55 AM,34.2,22.1,61,29.85,10.0,WNW,12.7,-,N/A,,Partly Cloudy,300,2012-12-28 16:55:00
12:55 PM,34.9,21.7,59,29.85,10.0,WNW,17.3,25.3,N/A,,Partly Cloudy,290,2012-12-28 17:55:00
1:55 PM,34.3,21.7,60,29.87,10.0,West,12.7,21.9,N/A,,Partly Cloudy,280,2012-12-28 18:55:00
2:55 PM,33.6,20.7,59,29.89,10.0,WNW,12.7,20.7,N/A,,Partly Cloudy,290,2012-12-28 19:55:00
3:55 PM,32.2,20.3,62,29.91,10.0,WNW,9.2,-,N/A,,Partly Cloudy,290,2012-12-28 20:55:00
4:55 PM,29.7,19.8,67,29.93,10.0,West,4.6,-,N/A,,Partly Cloudy,260,2012-12-28 21:55:00
5:55 PM,29.7,20.3,68,29.96,10.0,West,8.1,-,N/A,,Partly Cloudy,270,2012-12-28 22:55:00
6:55 PM,29.1,20.5,70,29.96,10.0,WNW,5.8,-,N/A,,Mostly Cloudy,290,2012-12-28 23:55:00
7:55 PM,28.8,20.5,71,29.96,10.0,WNW,8.1,-,N/A,,Mostly Cloudy,290,2012-12-29 00:55:00
8:55 PM,29.8,20.7,69,29.99,10.0,West,6.9,-,N/A,,Mostly Cloudy,280,2012-12-29 01:55:00
9:55 PM,28.8,19.9,70,29.98,10.0,WNW,9.2,-,N/A,,Mostly Cloudy,290,2012-12-29 02:55:00
10:55 PM,28.2,19.8,71,29.98,10.0,West,8.1,-,N/A,,Mostly Cloudy,270,2012-12-29 03:55:00
11:55 PM,28.9,19.8,69,29.98,10.0,West,8.1,-,N/A,,Mostly Cloudy,260,2012-12-29 04:55:00